Casper-Natrona County International Airport
KCPR : now visible

Airfield :











YOU CAN JOIN US ON...

 
LOGIN :

Register | Disclaimer

   EN    FR    IT 

 









Legend :    VFR   Marginal VFR   IFR   Intensive IFR   Very Intensive IFR
Visi :
Ceiling :
>= 8 km
>= 3000ft
5 to 8 km
1000 to 3000 ft
1500m to 5 km
500 to 1000 ft
800 to 1500m
200 to 500 ft
< 800m
< 200 ft
Symbols :   Thunderstorms  Fog  Heavy snow  Heavy precipitations  Wind > 20 kt






- Airport Elevation : 5350 ft
- IATA code : CPR


KCPR - Casper-Natrona County International

CURRENT METAR :
  • 230042Z 10009KT 10SM OVC009 M04/M07 A2981 RMK AO2 T10441067

EXPIRED METARs :
  • 222353Z 10010KT 10SM OVC010 M04/M07 A2981 RMK AO2 SLP133 T10391067 11028 21050 56014
  • 222325Z 10010KT 10SM BKN010 M04/M07 A2981 RMK AO2 T10391067
  • 222253Z 10009KT 10SM OVC022 M03/M06 A2982 RMK AO2 SLP135 T10331061
  • 222217Z 08008KT 10SM SCT013 OVC020 M03/M06 A2983 RMK AO2 T10331061
  • 222153Z 10007KT 10SM OVC012 M03/M06 A2984 RMK AO2 SLP142 T10331061

TAF KCPR
Valid from the 23 at 00:00 until the 24 at 00:00 UTC


222331Z 2300/2324 16006KT P6SM BKN010 OVC035
FM230400 35006KT P6SM VCSH SCT020 OVC035
FM230700 35005KT 5SM -SN OVC015
FM231200 01008KT 2SM -SN SCT003 OVC015
KZDV FIR / North America



MET'MAP, your aeronautical weather chart ! - Copyright ORBIFLY December 2007 - Disclaimer

ORBIFLY MET'MAP TEAM :

Programming & Development : Alexandra Zaïnal
Concept & original design : Baudouin d'Aumeries
Assistance for programming : Marc-Olivier Méhu
Technical & hardware support : Manuel Goepfert

Contact : metmap@orbifly.com




SOURCES & CREDITS :

   NOAA       Earth
Advisory